Aviation Digital Data Service (ADDS)

Output produced by METARs form (2229 UTC 26 March 2015)
found at http://aviationweather.gov/adds/metars/
 
KJHW 262100Z 2621/2718 00000KT 4SM -SN OVC003 
     FM270000 29005KT 3SM -SN OVC007 
     FM270600 25005KT 5SM -SN BKN007 
     FM271000 28004KT 3SM -SN BKN007 
     FM271400 29006KT 2SM -SN BKN007 
     FM271600 29007KT 2SM -SN BKN015 AMD LTD TO CLD VIS AND WIND